Time;durP1;ratioP1;P1;durP2;ratioP2;P2;SDS_P1;SDS_P2;PMS_P1;PMS_P2;Temp;Humidity;BMP_temperature;BMP_pressure;BME280_temperature;BME280_humidity;BME280_pressure;Samples;Min_cycle;Max_cycle;Signal;HPM_P1;HPM_P2
2022/12/20 00:00:13;;;;;;;42.97;19.80;;;;;;;-142.25;100.00;58004.16;4967746;28;20055;-69
2022/12/20 00:02:38;;;;;;;42.37;20.70;;;;;;;-142.25;100.00;58004.16;4968538;28;20031;-70
2022/12/20 00:05:04;;;;;;;43.77;18.73;;;;;;;-142.25;100.00;58004.16;4964405;28;20150;-76
2022/12/20 00:07:30;;;;;;;39.57;19.23;;;;;;;-142.25;100.00;58004.16;4969437;28;20067;-69
2022/12/20 00:09:55;;;;;;;42.20;19.83;;;;;;;-142.25;100.00;58004.16;4966553;28;20046;-68
2022/12/20 00:12:21;;;;;;;41.63;18.63;;;;;;;-142.25;100.00;58004.16;4968501;28;20678;-68
2022/12/20 00:14:47;;;;;;;46.37;19.20;;;;;;;-142.25;100.00;58004.16;4969177;28;20053;-70
2022/12/20 00:17:12;;;;;;;45.03;17.73;;;;;;;-142.25;100.00;58004.16;4968011;28;20043;-68
2022/12/20 00:19:38;;;;;;;44.90;18.87;;;;;;;-142.25;100.00;58004.16;4966299;28;20564;-71
2022/12/20 00:22:04;;;;;;;41.97;19.87;;;;;;;-142.25;100.00;58004.16;4966748;28;20043;-68
2022/12/20 00:24:29;;;;;;;40.77;17.47;;;;;;;-142.25;100.00;58004.16;4964430;28;20466;-69
2022/12/20 00:26:55;;;;;;;46.97;19.87;;;;;;;-142.25;100.00;58004.16;4965172;28;20046;-68
2022/12/20 00:29:20;;;;;;;54.57;20.93;;;;;;;-142.25;100.00;58004.16;4964756;28;20043;-69
2022/12/20 00:31:46;;;;;;;43.63;19.10;;;;;;;-142.25;100.00;58004.16;4963867;28;20042;-68
2022/12/20 00:34:12;;;;;;;49.30;19.73;;;;;;;-142.25;100.00;58004.16;4963908;28;20050;-67
2022/12/20 00:36:39;;;;;;;47.57;19.37;;;;;;;-142.25;100.00;58004.16;4962700;28;20050;-69
2022/12/20 00:39:06;;;;;;;48.07;20.57;;;;;;;-142.25;100.00;58004.16;4964320;28;20042;-69
2022/12/20 00:41:33;;;;;;;46.73;20.13;;;;;;;-142.25;100.00;58004.16;4954395;28;20636;-69
2022/12/20 00:44:00;;;;;;;47.37;19.33;;;;;;;-142.25;100.00;58004.16;4964453;28;20662;-68
2022/12/20 00:46:26;;;;;;;50.10;20.70;;;;;;;-142.25;100.00;58004.16;4964414;28;20497;-68
2022/12/20 00:48:53;;;;;;;42.80;19.20;;;;;;;-142.25;100.00;58004.16;4962032;28;20928;-68
2022/12/20 00:51:23;;;;;;;62.03;22.43;;;;;;;-142.25;100.00;58004.16;4952700;28;20045;-68
2022/12/20 00:53:49;;;;;;;48.60;20.17;;;;;;;-142.25;100.00;58004.16;4965313;28;20423;-69
2022/12/20 00:56:16;;;;;;;54.53;22.53;;;;;;;-142.25;100.00;58004.16;4956062;28;20416;-70
2022/12/20 00:58:43;;;;;;;55.43;21.23;;;;;;;-142.25;100.00;58004.16;4964580;28;20109;-69
2022/12/20 01:01:20;;;;;;;52.23;21.03;;;;;;;-142.25;100.00;58004.16;4962467;28;20109;-70
2022/12/20 01:03:48;;;;;;;52.20;19.90;;;;;;;-142.25;100.00;58004.16;4977805;28;20486;-70
2022/12/20 01:06:14;;;;;;;63.73;22.43;;;;;;;-142.25;100.00;58004.16;4964033;28;20046;-69
2022/12/20 01:08:41;;;;;;;50.97;20.40;;;;;;;-142.25;100.00;58004.16;4967115;28;20039;-68
2022/12/20 01:11:12;;;;;;;42.90;19.20;;;;;;;-142.25;100.00;58004.16;4962013;28;20458;-68
2022/12/20 01:13:42;;;;;;;48.00;20.80;;;;;;;-142.25;100.00;58004.16;4961302;28;20506;-68
2022/12/20 01:16:37;;;;;;;49.27;21.17;;;;;;;-142.25;100.00;58004.16;4963490;28;20450;-67
2022/12/20 01:19:03;;;;;;;52.60;20.00;;;;;;;-142.25;100.00;58004.16;4965856;28;20124;-68
2022/12/20 01:21:30;;;;;;;42.73;18.53;;;;;;;-142.25;100.00;58004.16;4964893;28;20053;-68
2022/12/20 01:23:56;;;;;;;46.10;19.40;;;;;;;-142.25;100.00;58004.16;4962710;28;20474;-68
2022/12/20 01:26:24;;;;;;;50.73;20.37;;;;;;;-142.25;100.00;58004.16;4960725;28;20105;-68
2022/12/20 01:28:58;;;;;;;41.50;18.53;;;;;;;-142.25;100.00;58004.16;4962852;28;20056;-68
2022/12/20 01:31:26;;;;;;;53.27;19.37;;;;;;;-142.25;100.00;58004.16;4964582;28;20057;-68
2022/12/20 01:33:51;;;;;;;45.13;19.57;;;;;;;-142.25;100.00;58004.16;4961072;28;20035;-67
2022/12/20 01:36:26;;;;;;;45.30;19.30;;;;;;;-142.25;100.00;58004.16;4962448;28;20051;-68
2022/12/20 01:39:03;;;;;;;46.87;18.60;;;;;;;-142.25;100.00;58004.16;4964485;28;20034;-68
2022/12/20 01:41:30;;;;;;;46.87;20.17;;;;;;;-142.25;100.00;58004.16;4966074;28;20035;-68
2022/12/20 01:44:02;;;;;;;44.97;21.43;;;;;;;-142.25;100.00;58004.16;4950104;28;20493;-69
2022/12/20 01:46:31;;;;;;;48.43;18.93;;;;;;;-142.25;100.00;58004.16;4966849;28;20038;-68
2022/12/20 01:49:00;;;;;;;47.87;20.33;;;;;;;-142.25;100.00;58004.16;4966319;28;20034;-68
2022/12/20 01:51:29;;;;;;;42.40;19.73;;;;;;;-142.25;100.00;58004.16;4976922;28;20062;-70
2022/12/20 01:54:03;;;;;;;46.60;19.53;;;;;;;-142.25;100.00;58004.16;4961385;28;20133;-68
2022/12/20 01:56:29;;;;;;;42.60;17.33;;;;;;;-142.25;100.00;58004.16;4977863;28;20462;-68
2022/12/20 01:58:56;;;;;;;48.63;19.43;;;;;;;-142.25;100.00;58004.16;4960702;28;20082;-69
2022/12/20 02:01:24;;;;;;;50.00;20.33;;;;;;;-142.25;100.00;58004.16;4960985;28;20533;-69
2022/12/20 02:03:51;;;;;;;56.90;19.83;;;;;;;-142.25;100.00;58004.16;4962378;28;20047;-68
2022/12/20 02:06:20;;;;;;;43.80;18.73;;;;;;;-142.25;100.00;58004.16;4961762;28;20070;-69
2022/12/20 02:08:48;;;;;;;40.00;17.83;;;;;;;-142.25;100.00;58004.16;4964885;28;20045;-68
2022/12/20 02:11:32;;;;;;;38.30;18.10;;;;;;;-142.25;100.00;58004.16;4977309;28;20402;-68
2022/12/20 02:14:10;;;;;;;50.17;19.23;;;;;;;-142.25;100.00;58004.16;4966811;28;20054;-68
2022/12/20 02:17:05;;;;;;;44.53;18.53;;;;;;;-142.25;100.00;58004.16;4965068;28;20074;-68
2022/12/20 02:19:49;;;;;;;40.57;19.00;;;;;;;-142.25;100.00;58004.16;4962729;28;20546;-68
2022/12/20 02:22:41;;;;;;;47.37;19.03;;;;;;;-142.25;100.00;58004.16;4962362;28;20046;-69
2022/12/20 02:25:38;;;;;;;38.60;19.30;;;;;;;-142.25;100.00;58004.16;4961761;28;20152;-70
2022/12/20 02:28:17;;;;;;;40.57;18.77;;;;;;;-142.25;100.00;58004.16;4956207;28;20035;-67
2022/12/20 02:30:46;;;;;;;44.13;16.63;;;;;;;-142.25;100.00;58004.16;4978444;28;20113;-69
2022/12/20 02:33:14;;;;;;;40.90;17.37;;;;;;;-142.25;100.00;58004.16;4964717;28;20562;-68
2022/12/20 02:35:41;;;;;;;41.23;17.50;;;;;;;-142.25;100.00;58004.16;4974553;28;20038;-68
2022/12/20 02:38:26;;;;;;;43.33;18.23;;;;;;;-142.25;100.00;58004.16;4958214;28;20101;-68
2022/12/20 02:41:00;;;;;;;43.03;17.17;;;;;;;-142.25;100.00;58004.16;4961878;28;20118;-69
2022/12/20 02:46:13;;;;;;;43.27;16.90;;;;;;;-142.25;100.00;58004.16;4962637;28;20055;-69
2022/12/20 02:48:40;;;;;;;47.80;18.87;;;;;;;-142.25;100.00;58004.16;4963421;28;20042;-70
2022/12/20 02:51:08;;;;;;;43.97;18.60;;;;;;;-142.25;100.00;58004.16;4967072;28;20046;-69
2022/12/20 02:53:36;;;;;;;39.77;18.60;;;;;;;-142.25;100.00;58004.16;4956374;28;20513;-68
2022/12/20 02:56:31;;;;;;;46.07;20.50;;;;;;;-142.25;100.00;58004.16;4980579;28;20892;-70
2022/12/20 02:59:26;;;;;;;44.23;18.73;;;;;;;-142.25;100.00;58004.16;4967401;28;20054;-69
2022/12/20 03:01:54;;;;;;;38.67;19.15;;;;;;;-142.25;100.00;58004.16;4961597;28;20687;-67
2022/12/20 03:04:25;;;;;;;43.53;20.03;;;;;;;-142.25;100.00;58004.16;4964130;28;20042;-68
2022/12/20 03:07:04;;;;;;;44.30;19.00;;;;;;;-142.25;100.00;58004.16;4965891;28;20044;-69
2022/12/20 03:09:31;;;;;;;43.73;17.80;;;;;;;-142.25;100.00;58004.16;4966287;28;20047;-69
2022/12/20 03:11:58;;;;;;;43.33;16.47;;;;;;;-142.25;100.00;58004.16;4978544;28;20631;-69
2022/12/20 03:14:25;;;;;;;41.13;19.03;;;;;;;-142.25;100.00;58004.16;4968930;28;20042;-69
2022/12/20 03:16:52;;;;;;;43.43;19.97;;;;;;;-142.25;100.00;58004.16;4968000;28;20079;-69
2022/12/20 03:19:18;;;;;;;39.63;18.63;;;;;;;-142.25;100.00;58004.16;4964609;28;20047;-69
2022/12/20 03:21:44;;;;;;;42.10;18.87;;;;;;;-142.25;100.00;58004.16;4965519;28;20326;-68
2022/12/20 03:24:12;;;;;;;49.23;19.03;;;;;;;-142.25;100.00;58004.16;4968035;28;20486;-70
2022/12/20 03:26:39;;;;;;;46.57;19.20;;;;;;;-142.25;100.00;58004.16;4972591;28;20035;-69
2022/12/20 03:29:05;;;;;;;38.93;18.17;;;;;;;-142.25;100.00;58004.16;4966628;28;20124;-70
2022/12/20 03:31:32;;;;;;;43.80;18.03;;;;;;;-142.25;100.00;58004.16;4937350;28;20079;-68
2022/12/20 03:33:57;;;;;;;44.10;18.73;;;;;;;-142.25;100.00;58004.16;4964895;28;20045;-69
2022/12/20 03:36:25;;;;;;;48.37;19.10;;;;;;;-142.25;100.00;58004.16;4964941;28;20117;-69
2022/12/20 03:38:55;;;;;;;42.33;19.27;;;;;;;-142.25;100.00;58004.16;4966844;28;20047;-69
2022/12/20 03:41:23;;;;;;;41.30;16.40;;;;;;;-142.25;100.00;58004.16;4964741;28;20053;-69
2022/12/20 03:43:49;;;;;;;48.57;19.37;;;;;;;-142.25;100.00;58004.16;4982807;28;20054;-71
2022/12/20 03:46:16;;;;;;;41.50;18.47;;;;;;;-142.25;100.00;58004.16;4975341;28;20042;-72
2022/12/20 03:48:42;;;;;;;49.47;20.17;;;;;;;-142.25;100.00;58004.16;4981362;28;20042;-70
2022/12/20 03:51:08;;;;;;;45.63;21.00;;;;;;;-142.25;100.00;58004.16;4964912;28;20047;-70
2022/12/20 03:53:34;;;;;;;53.77;20.67;;;;;;;-142.25;100.00;58004.16;4963753;28;20041;-69
2022/12/20 03:56:01;;;;;;;45.70;19.33;;;;;;;-142.25;100.00;58004.16;4964437;28;20050;-71
2022/12/20 03:58:27;;;;;;;40.93;18.77;;;;;;;-142.25;100.00;58004.16;4969580;28;20096;-72
2022/12/20 04:00:52;;;;;;;46.33;19.87;;;;;;;-142.25;100.00;58004.16;4964537;28;20143;-65
2022/12/20 04:03:35;;;;;;;45.17;18.30;;;;;;;-142.25;100.00;58004.16;4960133;28;20047;-65
2022/12/20 04:06:01;;;;;;;39.07;16.43;;;;;;;-142.25;100.00;58004.16;4951843;28;20397;-65
2022/12/20 04:08:27;;;;;;;46.30;19.17;;;;;;;-142.25;100.00;58004.16;4964002;28;20490;-66
2022/12/20 04:13:40;;;;;;;37.20;17.33;;;;;;;-142.25;100.00;58004.16;4979533;28;20145;-66
2022/12/20 04:16:07;;;;;;;37.70;17.50;;;;;;;-142.25;100.00;58004.16;4937951;28;20053;-63
2022/12/20 04:18:33;;;;;;;49.03;20.17;;;;;;;-142.25;100.00;58004.16;4967832;28;20426;-66
2022/12/20 04:21:00;;;;;;;43.97;19.43;;;;;;;-142.25;100.00;58004.16;4968903;28;20030;-65
2022/12/20 04:23:27;;;;;;;39.10;17.53;;;;;;;-142.25;100.00;58004.16;4964268;28;20055;-66
2022/12/20 04:25:53;;;;;;;42.47;18.47;;;;;;;-142.25;100.00;58004.16;4966950;28;20035;-64
2022/12/20 04:28:19;;;;;;;41.00;17.13;;;;;;;-142.25;100.00;58004.16;4952077;28;20053;-66
2022/12/20 04:30:44;;;;;;;43.70;18.00;;;;;;;-142.25;100.00;58004.16;4966019;28;20050;-65
2022/12/20 04:33:12;;;;;;;41.20;17.50;;;;;;;-142.25;100.00;58004.16;4960951;28;20065;-64
2022/12/20 04:35:38;;;;;;;38.60;17.83;;;;;;;-142.25;100.00;58004.16;4958783;28;20043;-64
2022/12/20 04:38:04;;;;;;;35.47;17.20;;;;;;;-142.25;100.00;58004.16;4967386;28;20047;-64
2022/12/20 04:40:30;;;;;;;40.23;19.97;;;;;;;-142.25;100.00;58004.16;4965761;28;20137;-64
2022/12/20 04:42:57;;;;;;;42.33;18.60;;;;;;;-142.25;100.00;58004.16;4969570;28;20378;-65
2022/12/20 04:45:23;;;;;;;40.57;17.67;;;;;;;-142.25;100.00;58004.16;4963766;28;20050;-65
2022/12/20 04:47:50;;;;;;;39.53;18.93;;;;;;;-142.25;100.00;58004.16;4963516;28;20125;-66
2022/12/20 04:50:22;;;;;;;40.13;18.03;;;;;;;-142.25;100.00;58004.16;4965306;28;20057;-64
2022/12/20 04:55:37;;;;;;;37.53;18.20;;;;;;;-142.25;100.00;58004.16;4959158;28;20047;-65
2022/12/20 04:58:03;;;;;;;45.87;19.87;;;;;;;-142.25;100.00;58004.16;4965491;28;20229;-64
2022/12/20 05:00:30;;;;;;;37.30;19.23;;;;;;;-142.25;100.00;58004.16;4964677;28;20042;-65
2022/12/20 05:03:04;;;;;;;41.97;19.77;;;;;;;-142.25;100.00;58004.16;4964283;28;20174;-64
2022/12/20 05:05:29;;;;;;;50.03;20.13;;;;;;;-142.25;100.00;58004.16;4964306;28;20042;-65
2022/12/20 05:07:56;;;;;;;43.00;21.07;;;;;;;-142.25;100.00;58004.16;4954172;28;20047;-65
2022/12/20 05:10:23;;;;;;;43.67;20.47;;;;;;;-142.25;100.00;58004.16;4964781;28;20042;-64
2022/12/20 05:12:50;;;;;;;41.57;19.10;;;;;;;-142.25;100.00;58004.16;4961133;28;20059;-66
2022/12/20 05:15:26;;;;;;;40.87;17.97;;;;;;;-142.25;100.00;58004.16;4967434;28;20144;-64
2022/12/20 05:17:58;;;;;;;41.77;16.90;;;;;;;-142.25;100.00;58004.16;4964251;28;20039;-66
2022/12/20 05:20:25;;;;;;;38.10;19.47;;;;;;;-142.25;100.00;58004.16;4967473;28;20118;-66
2022/12/20 05:28:33;;;;;;;50.83;19.93;;;;;;;-142.25;100.00;58004.16;4977943;28;20050;-65
2022/12/20 05:30:59;;;;;;;44.17;18.27;;;;;;;-142.25;100.00;58004.16;4964528;28;20133;-63
2022/12/20 05:33:25;;;;;;;45.80;18.37;;;;;;;-142.25;100.00;58004.16;4966132;28;20053;-65
2022/12/20 05:35:51;;;;;;;42.70;19.47;;;;;;;-142.25;100.00;58004.16;4975824;28;20047;-65
2022/12/20 05:38:17;;;;;;;42.67;19.00;;;;;;;-142.25;100.00;58004.16;4958107;28;20426;-64
2022/12/20 05:40:47;;;;;;;44.93;18.00;;;;;;;-142.25;100.00;58004.16;4963024;28;20047;-63
2022/12/20 05:43:14;;;;;;;50.07;20.97;;;;;;;-142.25;100.00;58004.16;4959937;28;20782;-66
2022/12/20 05:45:48;;;;;;;46.90;20.47;;;;;;;-142.25;100.00;58004.16;4962545;28;20038;-65
2022/12/20 05:48:19;;;;;;;44.97;19.40;;;;;;;-142.25;100.00;58004.16;4969719;28;20046;-70
2022/12/20 05:50:45;;;;;;;45.97;19.20;;;;;;;-142.25;100.00;58004.16;4964267;28;20039;-70
2022/12/20 05:53:25;;;;;;;51.63;20.27;;;;;;;-142.25;100.00;58004.16;4968852;28;20050;-67
2022/12/20 05:55:54;;;;;;;44.03;19.83;;;;;;;-142.25;100.00;58004.16;4962226;28;20046;-68
2022/12/20 05:58:23;;;;;;;53.40;23.23;;;;;;;-142.25;100.00;58004.16;4964252;28;20553;-70
2022/12/20 06:00:55;;;;;;;45.93;21.23;;;;;;;-142.25;100.00;58004.16;4970630;28;20057;-69
2022/12/20 06:03:22;;;;;;;51.07;20.67;;;;;;;-142.25;100.00;58004.16;4960938;28;20074;-69
2022/12/20 06:05:48;;;;;;;55.23;19.33;;;;;;;-142.25;100.00;58004.16;4966786;28;20133;-69
2022/12/20 06:08:22;;;;;;;48.93;20.57;;;;;;;-142.25;100.00;58004.16;4962486;28;20043;-68
2022/12/20 06:10:48;;;;;;;44.03;20.93;;;;;;;-142.25;100.00;58004.16;4953413;28;20406;-69
2022/12/20 06:13:17;;;;;;;38.60;18.20;;;;;;;-142.25;100.00;58004.16;4950585;28;20051;-65
2022/12/20 06:15:43;;;;;;;57.03;21.70;;;;;;;-142.25;100.00;58004.16;4973563;28;20348;-61
2022/12/20 06:18:10;;;;;;;41.57;19.63;;;;;;;-142.25;100.00;58004.16;4961182;28;20511;-67
2022/12/20 06:20:37;;;;;;;47.33;20.27;;;;;;;-142.25;100.00;58004.16;4963474;28;20471;-67
2022/12/20 06:23:03;;;;;;;44.50;20.30;;;;;;;-142.25;100.00;58004.16;4947279;28;20630;-67
2022/12/20 06:25:37;;;;;;;51.90;21.23;;;;;;;-142.25;100.00;58004.16;4952898;28;20051;-67
2022/12/20 06:28:02;;;;;;;49.47;20.93;;;;;;;-142.25;100.00;58004.16;4944276;28;20135;-67
2022/12/20 06:30:29;;;;;;;45.63;22.00;;;;;;;-142.25;100.00;58004.16;4944659;28;20046;-67
2022/12/20 06:33:03;;;;;;;51.20;20.48;;;;;;;-142.25;100.00;58004.16;4959603;28;20101;-67
2022/12/20 06:35:30;;;;;;;49.60;21.10;;;;;;;-142.25;100.00;58004.16;4975223;28;20146;-68
2022/12/20 06:37:56;;;;;;;43.00;19.33;;;;;;;-142.25;100.00;58004.16;4960246;28;20043;-67
2022/12/20 06:40:22;;;;;;;49.57;20.47;;;;;;;-142.25;100.00;58004.16;4979051;28;20589;-68
2022/12/20 06:42:49;;;;;;;49.33;21.23;;;;;;;-142.25;100.00;58004.16;4949566;28;20050;-71
2022/12/20 06:45:17;;;;;;;50.33;20.37;;;;;;;-142.25;100.00;58004.16;4935346;28;20076;-68
2022/12/20 06:47:43;;;;;;;47.43;19.33;;;;;;;-142.25;100.00;58004.16;4961568;28;20053;-69
2022/12/20 06:50:09;;;;;;;50.97;18.63;;;;;;;-142.25;100.00;58004.16;4964581;28;20041;-68
2022/12/20 06:52:34;;;;;;;48.00;19.63;;;;;;;-142.25;100.00;58004.16;4946919;28;20095;-68
2022/12/20 06:55:00;;;;;;;45.53;18.23;;;;;;;-142.25;100.00;58004.16;4963473;28;20513;-69
2022/12/20 06:57:28;;;;;;;42.57;18.73;;;;;;;-142.25;100.00;58004.16;4979403;28;20043;-67
2022/12/20 06:59:53;;;;;;;54.80;22.27;;;;;;;-142.25;100.00;58004.16;4976853;28;20050;-68
2022/12/20 07:02:19;;;;;;;47.33;20.63;;;;;;;-142.25;100.00;58004.16;4963533;28;20057;-68
2022/12/20 07:04:44;;;;;;;50.00;19.10;;;;;;;-142.25;100.00;58004.16;4963782;28;20036;-68
2022/12/20 07:07:12;;;;;;;47.13;19.53;;;;;;;-142.25;100.00;58004.16;4963509;28;20577;-67
2022/12/20 07:09:40;;;;;;;50.70;21.57;;;;;;;-142.25;100.00;58004.16;4965267;28;20045;-69
2022/12/20 07:12:07;;;;;;;46.03;18.40;;;;;;;-142.25;100.00;58004.16;4956921;28;20756;-68
2022/12/20 07:14:33;;;;;;;43.77;19.47;;;;;;;-142.25;100.00;58004.16;4962089;28;20070;-68
2022/12/20 07:16:59;;;;;;;50.70;19.63;;;;;;;-142.25;100.00;58004.16;4960370;28;20134;-67
2022/12/20 07:19:25;;;;;;;53.77;21.27;;;;;;;-142.25;100.00;58004.16;4962712;28;20400;-69
2022/12/20 07:21:50;;;;;;;48.10;20.60;;;;;;;-142.25;100.00;58004.16;4961012;28;20042;-67
2022/12/20 07:24:16;;;;;;;44.80;19.33;;;;;;;-142.25;100.00;58004.16;4962304;28;20101;-67
2022/12/20 07:26:45;;;;;;;54.03;21.60;;;;;;;-142.25;100.00;58004.16;4960284;28;20055;-68
2022/12/20 07:29:12;;;;;;;53.00;20.63;;;;;;;-142.25;100.00;58004.16;4962552;28;20574;-68
2022/12/20 07:31:37;;;;;;;46.83;18.67;;;;;;;-142.25;100.00;58004.16;4976173;28;20146;-69
2022/12/20 07:34:03;;;;;;;51.57;22.00;;;;;;;-142.25;100.00;58004.16;4962852;28;20047;-67
2022/12/20 07:36:28;;;;;;;51.87;20.67;;;;;;;-142.25;100.00;58004.16;4963465;28;20043;-67
2022/12/20 07:38:54;;;;;;;48.43;21.20;;;;;;;-142.25;100.00;58004.16;4965672;28;20046;-68
2022/12/20 07:41:20;;;;;;;50.43;19.90;;;;;;;-142.25;100.00;58004.16;4964925;28;20078;-70
2022/12/20 07:43:47;;;;;;;51.17;19.97;;;;;;;-142.25;100.00;58004.16;4964860;28;20051;-68
2022/12/20 07:46:13;;;;;;;47.90;19.33;;;;;;;-142.25;100.00;58004.16;4963499;28;20649;-69
2022/12/20 07:48:39;;;;;;;54.77;23.10;;;;;;;-142.25;100.00;58004.16;4965368;28;20043;-68
2022/12/20 07:51:08;;;;;;;43.77;18.47;;;;;;;-142.25;100.00;58004.16;4963997;28;20361;-68
2022/12/20 07:53:39;;;;;;;47.63;22.87;;;;;;;-142.25;100.00;58004.16;4964914;28;20063;-69
2022/12/20 07:56:08;;;;;;;52.73;20.90;;;;;;;-142.25;100.00;58004.16;4962596;28;20069;-70
2022/12/20 07:58:36;;;;;;;43.07;19.50;;;;;;;-142.25;100.00;58004.16;4977763;28;20474;-68
2022/12/20 08:01:06;;;;;;;57.03;21.53;;;;;;;-142.25;100.00;58004.16;4965303;28;20322;-68
2022/12/20 08:03:46;;;;;;;54.60;19.80;;;;;;;-142.25;100.00;58004.16;4965832;28;20046;-68
2022/12/20 08:06:14;;;;;;;54.40;22.73;;;;;;;-142.25;100.00;58004.16;4963259;28;20133;-69
2022/12/20 08:08:43;;;;;;;57.97;23.50;;;;;;;-142.25;100.00;58004.16;4969557;28;20125;-67
2022/12/20 08:11:10;;;;;;;58.83;24.53;;;;;;;-142.25;100.00;58004.16;4963556;28;20045;-68
2022/12/20 08:13:36;;;;;;;56.80;21.10;;;;;;;-142.25;100.00;58004.16;4965742;28;20064;-68
2022/12/20 08:16:03;;;;;;;58.30;22.70;;;;;;;-142.25;100.00;58004.16;4963206;28;20633;-68
2022/12/20 08:18:29;;;;;;;52.50;22.40;;;;;;;-142.25;100.00;58004.16;4961416;28;20043;-69
2022/12/20 08:20:54;;;;;;;49.57;23.93;;;;;;;-142.25;100.00;58004.16;4969724;28;20085;-69
2022/12/20 08:23:20;;;;;;;58.00;22.57;;;;;;;-142.25;100.00;58004.16;4951978;28;20532;-68
2022/12/20 08:25:46;;;;;;;52.43;19.87;;;;;;;-142.25;100.00;58004.16;4961926;28;20188;-69
2022/12/20 08:28:11;;;;;;;45.77;19.67;;;;;;;-142.25;100.00;58004.16;4965743;28;20530;-69
2022/12/20 08:30:37;;;;;;;48.13;21.47;;;;;;;-142.25;100.00;58004.16;4966704;28;20047;-69
2022/12/20 08:33:04;;;;;;;49.43;19.90;;;;;;;-142.25;100.00;58004.16;4979515;28;20166;-69
2022/12/20 08:35:30;;;;;;;53.90;19.33;;;;;;;-142.25;100.00;58004.16;4960959;28;20121;-68
2022/12/20 08:37:55;;;;;;;49.20;20.07;;;;;;;-142.25;100.00;58004.16;4964349;28;20043;-69
2022/12/20 08:40:21;;;;;;;51.90;21.47;;;;;;;-142.25;100.00;58004.16;4962802;28;20622;-69
2022/12/20 08:42:47;;;;;;;51.77;20.77;;;;;;;-142.25;100.00;58004.16;4963796;28;20057;-67
2022/12/20 08:45:12;;;;;;;46.90;21.27;;;;;;;-142.25;100.00;58004.16;4963017;28;20120;-69
2022/12/20 08:47:38;;;;;;;54.10;22.80;;;;;;;-142.25;100.00;58004.16;4963715;28;20461;-66
2022/12/20 08:50:04;;;;;;;51.60;21.93;;;;;;;-142.25;100.00;58004.16;4961577;28;20050;-70
2022/12/20 08:52:30;;;;;;;50.10;20.80;;;;;;;-142.25;100.00;58004.16;4960460;28;20515;-71
2022/12/20 08:54:56;;;;;;;48.47;20.87;;;;;;;-142.25;100.00;58004.16;4961286;28;20121;-69
2022/12/20 08:57:22;;;;;;;54.17;20.67;;;;;;;-142.25;100.00;58004.16;4963640;28;20057;-68
2022/12/20 08:59:47;;;;;;;55.07;22.50;;;;;;;-142.25;100.00;58004.16;4966393;28;20109;-67
2022/12/20 09:02:13;;;;;;;47.43;18.80;;;;;;;-142.25;100.00;58004.16;4965566;28;20042;-64
2022/12/20 09:04:38;;;;;;;50.97;18.47;;;;;;;-142.25;100.00;58004.16;4964986;28;20039;-65
2022/12/20 09:07:04;;;;;;;44.40;19.97;;;;;;;-142.25;100.00;58004.16;4961836;28;20023;-65
2022/12/20 09:09:30;;;;;;;44.57;19.50;;;;;;;-142.25;100.00;58004.16;4962629;28;20074;-65
2022/12/20 09:11:56;;;;;;;43.93;18.47;;;;;;;-142.25;100.00;58004.16;4966455;28;20050;-64
2022/12/20 09:14:21;;;;;;;47.80;18.83;;;;;;;-142.25;100.00;58004.16;4962934;28;20054;-61
2022/12/20 09:16:48;;;;;;;40.50;18.03;;;;;;;-142.25;100.00;58004.16;4964539;28;20538;-62
2022/12/20 09:19:13;;;;;;;39.53;17.70;;;;;;;-142.25;100.00;58004.16;4962262;28;20043;-62
2022/12/20 09:21:39;;;;;;;41.27;18.40;;;;;;;-142.25;100.00;58004.16;4964495;28;20039;-62
2022/12/20 09:24:05;;;;;;;40.43;19.20;;;;;;;-142.25;100.00;58004.16;4959918;28;20039;-62
2022/12/20 09:26:31;;;;;;;36.80;17.97;;;;;;;-142.25;100.00;58004.16;4961008;28;20598;-61
2022/12/20 09:28:57;;;;;;;36.63;18.03;;;;;;;-142.25;100.00;58004.16;4961251;28;20059;-63
2022/12/20 09:31:25;;;;;;;43.87;18.80;;;;;;;-142.25;100.00;58004.16;4964683;28;20057;-63
2022/12/20 09:33:55;;;;;;;42.97;18.53;;;;;;;-142.25;100.00;58004.16;4964727;28;20039;-62
2022/12/20 09:36:23;;;;;;;45.97;19.37;;;;;;;-142.25;100.00;58004.16;4961282;28;20530;-63
2022/12/20 09:38:49;;;;;;;39.97;18.90;;;;;;;-142.25;100.00;58004.16;4955867;28;20645;-61
2022/12/20 09:41:39;;;;;;;36.70;17.50;;;;;;;-142.25;100.00;58004.16;4961946;28;20096;-62
2022/12/20 09:44:11;;;;;;;42.03;17.97;;;;;;;-142.25;100.00;58004.16;4960927;28;20090;-61
2022/12/20 09:46:39;;;;;;;41.70;19.40;;;;;;;-142.25;100.00;58004.16;4960810;28;20037;-68
2022/12/20 09:49:05;;;;;;;39.17;18.03;;;;;;;-142.25;100.00;58004.16;4956536;28;20050;-67
2022/12/20 09:51:50;;;;;;;38.23;19.43;;;;;;;-142.25;100.00;58004.16;4959317;28;20885;-68
2022/12/20 09:54:29;;;;;;;34.83;17.30;;;;;;;-142.25;100.00;58004.16;4956170;28;20046;-67
2022/12/20 09:56:58;;;;;;;40.23;17.70;;;;;;;-142.25;100.00;58004.16;4962420;28;20114;-67
2022/12/20 09:59:24;;;;;;;43.67;20.80;;;;;;;-142.25;100.00;58004.16;4959748;28;20169;-68
2022/12/20 10:01:50;;;;;;;42.23;17.57;;;;;;;-142.25;100.00;58004.16;4958774;28;20053;-69
2022/12/20 10:04:23;;;;;;;38.63;18.70;;;;;;;-142.25;100.00;58004.16;4957490;28;20043;-67
2022/12/20 10:07:07;;;;;;;42.67;20.00;;;;;;;-142.25;100.00;58004.16;4976941;28;20054;-67
2022/12/20 10:09:39;;;;;;;37.77;19.20;;;;;;;-142.25;100.00;58004.16;4962668;28;20543;-67
2022/12/20 10:12:44;;;;;;;41.97;18.93;;;;;;;-142.25;100.00;58004.16;4961331;28;20046;-68
2022/12/20 10:15:18;;;;;;;36.63;18.50;;;;;;;-142.25;100.00;58004.16;4962422;28;20392;-65
2022/12/20 10:18:05;;;;;;;45.63;19.33;;;;;;;-142.25;100.00;58004.16;4962701;28;20043;-66
2022/12/20 10:21:12;;;;;;;42.37;18.77;;;;;;;-142.25;100.00;58004.16;4963127;28;20058;-65
2022/12/20 10:23:56;;;;;;;38.67;20.33;;;;;;;-142.25;100.00;58004.16;4943849;28;20519;-64
2022/12/20 10:26:22;;;;;;;41.83;17.50;;;;;;;-142.25;100.00;58004.16;4940899;28;20135;-64
2022/12/20 10:28:48;;;;;;;40.70;18.53;;;;;;;-142.25;100.00;58004.16;4943840;28;20075;-66
2022/12/20 10:31:15;;;;;;;44.87;17.90;;;;;;;-142.25;100.00;58004.16;4930866;28;20199;-66
2022/12/20 10:33:42;;;;;;;46.47;20.60;;;;;;;-142.25;100.00;58004.16;4944291;28;20053;-66
2022/12/20 10:36:40;;;;;;;41.07;17.93;;;;;;;-142.25;100.00;58004.16;4941514;28;20055;-66
2022/12/20 10:39:08;;;;;;;51.00;19.07;;;;;;;-142.25;100.00;58004.16;4914192;28;20055;-67
2022/12/20 10:41:39;;;;;;;40.83;19.27;;;;;;;-142.25;100.00;58004.16;4946562;28;20166;-63
2022/12/20 10:44:22;;;;;;;47.67;20.60;;;;;;;-142.25;100.00;58004.16;4947871;28;20045;-65
2022/12/20 10:46:52;;;;;;;50.23;19.60;;;;;;;-142.25;100.00;58004.16;4947104;28;20042;-65
2022/12/20 10:49:21;;;;;;;44.43;19.53;;;;;;;-142.25;100.00;58004.16;4945377;28;20051;-66
2022/12/20 10:51:55;;;;;;;46.43;19.87;;;;;;;-142.25;100.00;58004.16;4944857;28;20049;-62
2022/12/20 10:54:29;;;;;;;46.07;18.40;;;;;;;-142.25;100.00;58004.16;4947379;28;20456;-63
2022/12/20 10:56:59;;;;;;;45.58;19.90;;;;;;;-142.25;100.00;58004.16;4960911;28;20783;-69
2022/12/20 10:59:35;;;;;;;40.87;17.97;;;;;;;-142.25;100.00;58004.16;4959316;28;20606;-69
2022/12/20 11:02:24;;;;;;;45.03;18.60;;;;;;;-142.25;100.00;58004.16;4959874;28;20050;-70
2022/12/20 11:05:00;;;;;;;39.87;18.33;;;;;;;-142.25;100.00;58004.16;4961172;28;20035;-69
2022/12/20 11:07:31;;;;;;;47.33;19.70;;;;;;;-142.25;100.00;58004.16;4962173;28;20043;-68
2022/12/20 11:09:59;;;;;;;48.47;19.33;;;;;;;-142.25;100.00;58004.16;4964136;28;20178;-69
2022/12/20 11:12:25;;;;;;;44.37;18.17;;;;;;;-142.25;100.00;58004.16;4966540;28;20153;-70
2022/12/20 11:15:07;;;;;;;42.80;19.03;;;;;;;-142.25;100.00;58004.16;4969096;28;20494;-69
2022/12/20 11:17:49;;;;;;;40.20;18.43;;;;;;;-142.25;100.00;58004.16;4966443;28;20050;-70